createdAt,value
2019-02-12T00:02:28.073Z,101541.58
2019-02-12T00:04:56.629Z,101543.47
2019-02-12T00:07:25.156Z,101541.80
2019-02-12T00:09:53.659Z,101543.77
2019-02-12T00:12:22.214Z,101544.36
2019-02-12T00:14:50.726Z,101555.45
2019-02-12T00:17:19.271Z,101548.89
2019-02-12T00:19:47.791Z,101551.48
2019-02-12T00:22:16.809Z,101543.78
2019-02-12T00:24:45.385Z,101552.58
2019-02-12T00:27:13.913Z,101546.30
2019-02-12T00:29:42.541Z,101536.62
2019-02-12T00:32:11.070Z,101543.61
2019-02-12T00:34:39.677Z,101538.86
2019-02-12T00:37:08.186Z,101535.22
2019-02-12T00:39:36.776Z,101532.77
2019-02-12T00:42:05.267Z,101541.89
2019-02-12T00:44:34.279Z,101552.27
2019-02-12T00:47:02.814Z,101548.00
2019-02-12T00:49:31.388Z,101551.91
2019-02-12T00:51:59.907Z,101550.03
2019-02-12T00:54:28.635Z,101551.33
2019-02-12T00:56:57.132Z,101549.88
2019-02-12T00:59:25.735Z,101548.72
2019-02-12T01:01:54.241Z,101550.59
2019-02-12T01:04:22.805Z,101555.84
2019-02-12T01:06:51.346Z,101542.28
2019-02-12T01:09:19.906Z,101551.31
2019-02-12T01:11:48.436Z,101549.94
2019-02-12T01:14:17.031Z,101546.39
2019-02-12T01:16:45.560Z,101543.90
2019-02-12T01:19:14.111Z,101550.50
2019-02-12T01:21:42.647Z,101571.92
2019-02-12T01:24:11.268Z,101566.38
2019-02-12T01:26:39.785Z,101567.83
2019-02-12T01:29:08.324Z,101581.61
2019-02-12T01:31:36.868Z,101586.78
2019-02-12T01:34:05.465Z,101578.45
2019-02-12T01:36:33.987Z,101581.09
2019-02-12T01:39:02.561Z,101590.04
2019-02-12T01:41:31.472Z,101584.69
2019-02-12T01:44:00.038Z,101592.42
2019-02-12T01:46:28.562Z,101591.97
2019-02-12T01:48:57.105Z,101592.69
2019-02-12T01:51:25.641Z,101597.13
2019-02-12T01:53:54.208Z,101598.64
2019-02-12T01:56:22.735Z,101603.61
2019-02-12T01:58:51.271Z,101609.81
2019-02-12T02:01:19.796Z,101597.98
2019-02-12T02:03:48.439Z,101611.79
2019-02-12T02:06:16.985Z,101622.80
2019-02-12T02:08:45.807Z,101616.70
2019-02-12T02:11:14.344Z,101617.91
2019-02-12T02:13:43.231Z,101624.73
2019-02-12T02:16:11.761Z,101622.63
2019-02-12T02:18:40.370Z,101615.25
2019-02-12T02:21:08.902Z,101620.09
2019-02-12T02:23:37.766Z,101621.08
2019-02-12T02:26:06.264Z,101627.85
2019-02-12T02:28:35.118Z,101624.53
2019-02-12T02:31:04.269Z,101637.72
2019-02-12T02:33:33.584Z,101636.43
2019-02-12T02:36:02.757Z,101644.80
2019-02-12T02:38:31.316Z,101652.31
2019-02-12T02:41:00.548Z,101641.78
2019-02-12T02:43:29.123Z,101637.09
2019-02-12T02:45:57.896Z,101644.33
2019-02-12T02:48:26.553Z,101635.83
2019-02-12T02:50:55.093Z,101639.34
2019-02-12T02:53:23.693Z,101648.46
2019-02-12T02:55:52.208Z,101647.09
2019-02-12T02:58:20.797Z,101654.50
2019-02-12T03:00:49.334Z,101654.48
2019-02-12T03:03:17.873Z,101667.44
2019-02-12T03:05:46.375Z,101664.45
2019-02-12T03:08:14.956Z,101659.50
2019-02-12T03:10:43.459Z,101667.77
2019-02-12T03:13:12.032Z,101661.16
2019-02-12T03:15:40.540Z,101654.89
2019-02-12T03:18:09.079Z,101668.08
2019-02-12T03:20:37.960Z,101670.89
2019-02-12T03:23:06.523Z,101675.73
2019-02-12T03:25:35.063Z,101680.38
2019-02-12T03:28:03.612Z,101686.74
2019-02-12T03:30:32.109Z,101676.36
2019-02-12T03:33:00.804Z,101684.28
2019-02-12T03:35:29.696Z,101695.71
2019-02-12T03:37:58.696Z,101709.26
2019-02-12T03:40:27.224Z,101717.18
2019-02-12T03:42:55.797Z,101705.02
2019-02-12T03:45:24.321Z,101707.95
2019-02-12T03:47:53.320Z,101708.47
2019-02-12T03:50:21.822Z,101718.67
2019-02-12T03:52:50.419Z,101715.97
2019-02-12T03:55:18.939Z,101719.93
2019-02-12T03:57:47.860Z,101716.39
2019-02-12T04:00:16.798Z,101721.14
2019-02-12T04:03:07.854Z,101729.97
2019-02-12T04:05:37.993Z,101722.67
2019-02-12T04:08:07.016Z,101721.45
2019-02-12T04:10:35.593Z,101718.33
2019-02-12T04:13:04.413Z,101729.86
2019-02-12T04:15:32.974Z,101727.33
2019-02-12T04:18:01.479Z,101721.42
2019-02-12T04:20:30.503Z,101725.17
2019-02-12T04:22:59.032Z,101719.86
2019-02-12T04:25:27.618Z,101725.34
2019-02-12T04:27:56.136Z,101722.32
2019-02-12T04:30:24.741Z,101723.47
2019-02-12T04:32:53.258Z,101721.91
2019-02-12T04:35:21.894Z,101715.78
2019-02-12T04:37:50.774Z,101713.66
2019-02-12T04:40:19.365Z,101713.36
2019-02-12T04:42:47.881Z,101713.88
2019-02-12T04:45:16.813Z,101720.44
2019-02-12T04:47:45.343Z,101727.05
2019-02-12T04:50:15.197Z,101740.95
2019-02-12T04:52:43.715Z,101743.59
2019-02-12T04:55:12.852Z,101742.97
2019-02-12T04:57:41.357Z,101733.27
2019-02-12T05:00:15.704Z,101736.05
2019-02-12T05:02:45.210Z,101734.93
2019-02-12T05:05:13.803Z,101733.30
2019-02-12T05:07:42.393Z,101741.30
2019-02-12T05:10:20.067Z,101742.17
2019-02-12T05:12:48.610Z,101741.05
2019-02-12T05:15:17.135Z,101733.75
2019-02-12T05:17:45.713Z,101741.57
2019-02-12T05:20:14.875Z,101749.39
2019-02-12T05:22:43.985Z,101749.11
2019-02-12T05:25:13.155Z,101751.02
2019-02-12T05:27:41.697Z,101756.69
2019-02-12T05:30:17.222Z,101751.41
2019-02-12T05:32:45.820Z,101748.56
2019-02-12T05:35:14.349Z,101745.05
2019-02-12T05:37:42.930Z,101753.14
2019-02-12T05:40:11.908Z,101755.64
2019-02-12T05:42:40.523Z,101752.09
2019-02-12T05:45:13.067Z,101758.19
2019-02-12T05:47:41.732Z,101765.75
2019-02-12T05:50:12.691Z,101761.89
2019-02-12T05:52:41.289Z,101770.05
2019-02-12T05:55:10.210Z,101769.01
2019-02-12T05:57:38.823Z,101772.16
2019-02-12T06:00:10.504Z,101770.12
2019-02-12T06:02:42.334Z,101767.88
2019-02-12T06:05:11.329Z,101775.28
2019-02-12T06:07:39.891Z,101776.14
2019-02-12T06:10:10.985Z,101772.70
2019-02-12T06:12:39.805Z,101785.16
2019-02-12T06:15:08.320Z,101794.05
2019-02-12T06:17:36.950Z,101802.37
2019-02-12T06:20:07.599Z,101818.09
2019-02-12T06:22:36.159Z,101812.48
2019-02-12T06:25:07.970Z,101826.80
2019-02-12T06:27:36.699Z,101839.94
2019-02-12T06:30:08.648Z,101843.69
2019-02-12T06:32:37.271Z,101849.61
2019-02-12T06:35:08.280Z,101846.70
2019-02-12T06:37:36.875Z,101861.47
2019-02-12T06:40:11.108Z,101861.14
2019-02-12T06:42:39.642Z,101873.30
2019-02-12T06:45:12.599Z,101874.95
2019-02-12T06:47:41.212Z,101884.19
2019-02-12T06:50:11.477Z,101883.39
2019-02-12T06:52:40.063Z,101890.10
2019-02-12T06:55:10.624Z,101896.05
2019-02-12T06:57:39.199Z,101902.69
2019-02-12T07:00:12.733Z,101891.19
2019-02-12T07:03:14.398Z,101888.81
2019-02-12T07:06:05.560Z,101895.25
2019-02-12T07:08:43.225Z,101898.63
2019-02-12T07:11:15.385Z,101908.11
2019-02-12T07:14:04.917Z,101915.12
2019-02-12T07:17:03.818Z,101927.20
2019-02-12T07:20:01.113Z,101934.38
2019-02-12T07:22:49.123Z,101946.60
2019-02-12T07:25:20.865Z,101954.70
2019-02-12T07:27:52.563Z,101955.57
2019-02-12T07:30:57.595Z,101959.00
2019-02-12T07:33:32.280Z,101960.59
2019-02-12T07:36:07.397Z,101967.05
2019-02-12T07:38:58.711Z,101961.23
2019-02-12T07:41:30.769Z,101966.93
2019-02-12T07:44:26.591Z,101970.36
2019-02-12T07:47:13.397Z,101983.91
2019-02-12T07:50:16.762Z,101982.86
2019-02-12T07:53:00.472Z,101984.22
2019-02-12T07:55:47.810Z,101982.17
2019-02-12T07:58:40.057Z,101987.25
2019-02-12T08:01:44.840Z,101990.99
2019-02-12T08:04:53.112Z,102002.34
2019-02-12T08:07:44.247Z,102008.39
2019-02-12T08:10:30.959Z,102005.38
2019-02-12T08:13:31.555Z,101999.72
2019-02-12T08:16:15.309Z,102003.46
2019-02-12T08:19:05.209Z,102003.14
2019-02-12T08:21:55.323Z,102005.41
2019-02-12T08:24:27.032Z,102016.04
2019-02-12T08:27:23.047Z,102015.53
2019-02-12T08:30:00.873Z,102015.94
2019-02-12T08:33:05.925Z,102022.66
2019-02-12T08:35:43.464Z,102024.08
2019-02-12T08:38:24.101Z,102035.17
2019-02-12T08:40:55.867Z,102032.77
2019-02-12T08:43:45.033Z,102029.78
2019-02-12T08:46:50.153Z,102028.30
2019-02-12T08:49:21.907Z,102038.61
2019-02-12T08:52:02.855Z,102039.64
2019-02-12T08:54:46.375Z,102048.64
2019-02-12T08:57:30.008Z,102050.30
2019-02-12T09:00:24.263Z,102068.05
2019-02-12T09:03:05.056Z,102065.19
2019-02-12T09:05:42.625Z,102068.45
2019-02-12T09:08:26.742Z,102074.70
2019-02-12T09:11:01.173Z,102083.95
2019-02-12T09:13:38.836Z,102086.42
2019-02-12T09:16:22.806Z,102090.57
2019-02-12T09:19:02.945Z,102084.72
2019-02-12T09:21:43.579Z,102098.30
2019-02-12T09:24:21.093Z,102094.58
2019-02-12T09:27:01.599Z,102093.33
2019-02-12T09:29:45.429Z,102106.33
2019-02-12T09:32:42.564Z,102111.94
2019-02-12T09:35:26.589Z,102109.69
2019-02-12T09:38:22.346Z,102117.84
2019-02-12T09:41:02.796Z,102127.50
2019-02-12T09:44:12.067Z,102131.19
2019-02-12T09:47:03.670Z,102132.71
2019-02-12T09:49:56.967Z,102143.63
2019-02-12T09:52:37.097Z,102147.22
2019-02-12T09:55:14.562Z,102158.92
2019-02-12T09:57:51.832Z,102162.89
2019-02-12T10:00:29.839Z,102155.98
2019-02-12T10:03:34.577Z,102158.00
2019-02-12T10:06:29.077Z,102164.80
2019-02-12T10:09:17.086Z,102183.49
2019-02-12T10:11:54.936Z,102179.36
2019-02-12T10:14:35.290Z,102176.16
2019-02-12T10:17:23.269Z,102174.33
2019-02-12T10:19:55.021Z,102180.80
2019-02-12T10:22:55.545Z,102189.56
2019-02-12T10:25:25.239Z,102187.31
2019-02-12T10:27:59.784Z,102187.16
2019-02-12T10:30:31.578Z,102184.95
2019-02-12T10:33:00.167Z,102194.86
2019-02-12T10:35:28.705Z,102203.09
2019-02-12T10:37:57.291Z,102202.39
2019-02-12T10:40:27.113Z,102198.20
2019-02-12T10:42:56.015Z,102203.24
2019-02-12T10:45:25.875Z,102175.44
2019-02-12T10:47:54.540Z,102169.90
2019-02-12T10:50:23.075Z,102197.16
2019-02-12T10:52:51.629Z,102197.95
2019-02-12T10:55:20.234Z,102175.67
2019-02-12T10:57:48.827Z,102190.29
2019-02-12T11:00:17.768Z,102208.16
2019-02-12T11:02:46.354Z,102185.36
2019-02-12T11:05:14.909Z,102195.33
2019-02-12T11:07:43.532Z,102191.45
2019-02-12T11:10:12.071Z,102172.34
2019-02-12T11:12:40.994Z,102180.31
2019-02-12T11:15:10.296Z,102185.56
2019-02-12T11:17:38.930Z,102194.16
2019-02-12T11:20:09.455Z,102187.12
2019-02-12T11:22:38.059Z,102193.11
2019-02-12T11:25:08.627Z,102190.79
2019-02-12T11:27:37.601Z,102202.75
2019-02-12T11:30:09.243Z,102201.59
2019-02-12T11:32:37.791Z,102212.42
2019-02-12T11:35:11.809Z,102211.75
2019-02-12T11:37:40.489Z,102211.64
2019-02-12T11:40:11.337Z,102206.19
2019-02-12T11:42:40.006Z,102203.28
2019-02-12T11:45:11.598Z,102191.64
2019-02-12T11:47:40.215Z,102208.83
2019-02-12T11:50:10.203Z,102213.78
2019-02-12T11:52:38.784Z,102206.80
2019-02-12T11:55:12.979Z,102214.34
2019-02-12T11:57:41.620Z,102219.53
2019-02-12T12:00:18.471Z,102207.58
2019-02-12T12:02:47.055Z,102218.58
2019-02-12T12:05:15.967Z,102217.70
2019-02-12T12:07:44.548Z,102223.47
2019-02-12T12:10:13.141Z,102229.14
2019-02-12T12:12:41.795Z,102236.85
2019-02-12T12:15:13.371Z,102238.70
2019-02-12T12:17:41.958Z,102247.60
2019-02-12T12:20:14.493Z,102246.30
2019-02-12T12:22:43.087Z,102236.14
2019-02-12T12:25:12.928Z,102240.61
2019-02-12T12:27:41.608Z,102248.09
2019-02-12T12:30:12.752Z,102259.91
2019-02-12T12:32:41.326Z,102267.65
2019-02-12T12:35:11.298Z,102266.69
2019-02-12T12:37:40.905Z,102273.78
2019-02-12T12:40:12.226Z,102266.36
2019-02-12T12:42:40.850Z,102259.85
2019-02-12T12:45:12.217Z,102276.27
2019-02-12T12:47:40.776Z,102271.98
2019-02-12T12:50:15.271Z,102283.23
2019-02-12T12:52:43.865Z,102270.58
2019-02-12T12:55:14.623Z,102270.02
2019-02-12T12:57:43.316Z,102274.95
2019-02-12T13:00:17.918Z,102279.62
2019-02-12T13:02:46.495Z,102285.36
2019-02-12T13:05:15.006Z,102284.39
2019-02-12T13:07:44.019Z,102288.69
2019-02-12T13:10:16.859Z,102297.09
2019-02-12T13:12:45.513Z,102295.80
2019-02-12T13:15:15.061Z,102299.67
2019-02-12T13:17:43.858Z,102295.84
2019-02-12T13:20:15.069Z,102310.44
2019-02-12T13:22:45.040Z,102301.39
2019-02-12T13:25:13.663Z,102299.09
2019-02-12T13:27:42.228Z,102308.33
2019-02-12T13:30:18.655Z,102309.52
2019-02-12T13:32:47.253Z,102306.47
2019-02-12T13:35:15.854Z,102314.19
2019-02-12T13:37:44.452Z,102311.69
2019-02-12T13:40:13.636Z,102303.52
2019-02-12T13:42:42.303Z,102312.64
2019-02-12T13:45:13.217Z,102306.30
2019-02-12T13:47:41.837Z,102301.77
2019-02-12T13:50:11.811Z,102315.89
2019-02-12T13:52:40.451Z,102314.30
2019-02-12T13:55:16.881Z,102322.73
2019-02-12T13:57:40.528Z,102321.52
2019-02-12T14:00:17.554Z,102317.81
2019-02-12T14:02:46.241Z,102322.55
2019-02-12T14:05:20.152Z,102321.36
2019-02-12T14:07:48.737Z,102333.02
2019-02-12T14:10:17.268Z,102342.75
2019-02-12T14:12:45.845Z,102343.00
2019-02-12T14:15:14.849Z,102341.08
2019-02-12T14:17:43.433Z,102339.28
2019-02-12T14:20:18.348Z,102339.38
2019-02-12T14:22:47.033Z,102339.12
2019-02-12T14:25:16.393Z,102340.38
2019-02-12T14:27:45.074Z,102345.75
2019-02-12T14:30:22.766Z,102342.47
2019-02-12T14:32:51.491Z,102340.47
2019-02-12T14:35:20.030Z,102344.03
2019-02-12T14:37:48.710Z,102345.83
2019-02-12T14:40:17.640Z,102347.05
2019-02-12T14:42:46.293Z,102343.64
2019-02-12T14:45:19.024Z,102343.11
2019-02-12T14:47:47.722Z,102350.56
2019-02-12T14:50:20.792Z,102353.04
2019-02-12T14:52:49.434Z,102357.40
2019-02-12T14:55:17.984Z,102362.53
2019-02-12T14:57:46.960Z,102369.78
2019-02-12T15:00:17.979Z,102371.74
2019-02-12T15:02:46.991Z,102377.71
2019-02-12T15:05:15.595Z,102386.36
2019-02-12T15:07:44.210Z,102381.91
2019-02-12T15:10:16.194Z,102390.53
2019-02-12T15:12:44.795Z,102388.88
2019-02-12T15:15:13.644Z,102392.64
2019-02-12T15:17:42.278Z,102394.86
2019-02-12T15:20:12.035Z,102391.05
2019-02-12T15:22:40.725Z,102393.05
2019-02-12T15:25:11.330Z,102389.81
2019-02-12T15:27:39.933Z,102390.72
2019-02-12T15:30:12.426Z,102389.38
2019-02-12T15:32:41.010Z,102395.90
2019-02-12T15:35:10.975Z,102394.34
2019-02-12T15:37:41.036Z,102398.23
2019-02-12T15:40:12.769Z,102398.97
2019-02-12T15:42:41.357Z,102396.56
2019-02-12T15:45:15.472Z,102393.86
2019-02-12T15:47:44.138Z,102398.52
2019-02-12T15:50:14.965Z,102391.73
2019-02-12T15:52:44.118Z,102399.36
2019-02-12T15:55:13.931Z,102410.02
2019-02-12T15:57:45.788Z,102399.48
2019-02-12T16:00:20.649Z,102396.80
2019-02-12T16:02:49.178Z,102397.72
2019-02-12T16:05:19.005Z,102403.67
2019-02-12T16:07:47.884Z,102404.22
2019-02-12T16:10:20.745Z,102401.07
2019-02-12T16:12:51.567Z,102403.70
2019-02-12T16:15:23.907Z,102405.14
2019-02-12T16:17:51.154Z,102411.09
2019-02-12T16:20:21.312Z,102412.79
2019-02-12T16:22:51.404Z,102412.34
2019-02-12T16:25:20.440Z,102408.08
2019-02-12T16:27:49.529Z,102417.13
2019-02-12T16:30:21.660Z,102416.61
2019-02-12T16:32:50.527Z,102416.73
2019-02-12T16:35:19.269Z,102422.56
2019-02-12T16:37:48.034Z,102423.81
2019-02-12T16:40:18.245Z,102424.53
2019-02-12T16:42:47.019Z,102424.52
2019-02-12T16:45:21.722Z,102437.98
2019-02-12T16:47:50.460Z,102443.19
2019-02-12T16:50:19.260Z,102448.00
2019-02-12T16:52:47.922Z,102445.87
2019-02-12T16:55:16.502Z,102451.33
2019-02-12T16:57:45.432Z,102460.92
2019-02-12T17:00:18.318Z,102458.27
2019-02-12T17:02:47.986Z,102464.86
2019-02-12T17:05:16.753Z,102407.33
2019-02-12T17:07:47.055Z,102468.77
2019-02-12T17:10:16.319Z,102474.02
2019-02-12T17:12:45.458Z,102477.05
2019-02-12T17:15:14.636Z,102487.08
2019-02-12T17:17:43.444Z,102488.03
2019-02-12T17:20:17.823Z,102489.20
2019-02-12T17:22:46.454Z,102499.11
2019-02-12T17:25:15.529Z,102499.38
2019-02-12T17:27:48.005Z,102497.42
2019-02-12T17:30:19.863Z,102500.02
2019-02-12T17:32:48.993Z,102491.93
2019-02-12T17:35:17.624Z,102502.80
2019-02-12T17:37:46.403Z,102502.13
2019-02-12T17:40:16.770Z,102504.62
2019-02-12T17:42:45.439Z,102501.09
2019-02-12T17:45:15.932Z,102506.62
2019-02-12T17:47:44.581Z,102511.01
2019-02-12T17:50:14.483Z,102510.31
2019-02-12T17:52:44.679Z,102515.40
2019-02-12T17:55:13.534Z,102505.27
2019-02-12T17:57:42.346Z,102515.66
2019-02-12T18:00:17.687Z,102511.57
2019-02-12T18:02:46.416Z,102512.86
2019-02-12T18:05:15.956Z,102512.23
2019-02-12T18:07:44.727Z,102512.75
2019-02-12T18:10:13.822Z,102513.95
2019-02-12T18:12:42.497Z,102514.94
2019-02-12T18:15:13.319Z,102521.63
2019-02-12T18:17:42.857Z,102517.89
2019-02-12T18:20:15.811Z,102523.88
2019-02-12T18:22:44.477Z,102516.70
2019-02-12T18:25:13.535Z,102521.27
2019-02-12T18:27:42.340Z,102519.50
2019-02-12T18:30:18.687Z,102517.16
2019-02-12T18:32:47.487Z,102522.98
2019-02-12T18:35:16.270Z,102520.86
2019-02-12T18:37:44.874Z,102514.62
2019-02-12T18:40:18.447Z,102517.09
2019-02-12T18:42:47.136Z,102519.14
2019-02-12T18:45:21.782Z,102521.98
2019-02-12T18:47:50.525Z,102520.13
2019-02-12T18:50:21.379Z,102525.97
2019-02-12T18:52:52.434Z,102524.96
2019-02-12T18:55:21.141Z,102529.05
2019-02-12T18:57:49.953Z,102531.16
2019-02-12T19:00:20.611Z,102531.22
2019-02-12T19:02:49.665Z,102534.93
2019-02-12T19:05:18.795Z,102532.56
2019-02-12T19:07:47.630Z,102535.78
2019-02-12T19:10:18.120Z,102538.53
2019-02-12T19:12:46.855Z,102544.96
2019-02-12T19:15:20.644Z,102547.48
2019-02-12T19:18:01.366Z,102548.46
2019-02-12T19:20:30.058Z,102544.13
2019-02-12T19:22:58.930Z,102544.38
2019-02-12T19:25:28.014Z,102549.16
2019-02-12T19:27:56.910Z,102550.78
2019-02-12T19:30:25.528Z,102551.34
2019-02-12T19:32:54.681Z,102552.22
2019-02-12T19:35:23.429Z,102554.27
2019-02-12T19:37:52.113Z,102555.58
2019-02-12T19:40:20.786Z,102557.78
2019-02-12T19:42:49.505Z,102548.05
2019-02-12T19:45:19.036Z,102551.10
2019-02-12T19:47:47.728Z,102545.42
2019-02-12T19:50:16.401Z,102545.34
2019-02-12T19:52:45.183Z,102547.20
2019-02-12T19:55:13.938Z,102548.22
2019-02-12T19:57:42.771Z,102536.58
2019-02-12T20:00:16.360Z,102546.02
2019-02-12T20:02:45.069Z,102547.77
2019-02-12T20:05:13.717Z,102549.80
2019-02-12T20:07:42.285Z,102560.06
2019-02-12T20:10:12.529Z,102561.47
2019-02-12T20:12:41.288Z,102562.89
2019-02-12T20:15:17.909Z,102564.19
2019-02-12T20:17:46.770Z,102560.76
2019-02-12T20:20:15.510Z,102567.38
2019-02-12T20:22:44.138Z,102563.69
2019-02-12T20:25:12.837Z,102570.86
2019-02-12T20:27:41.565Z,102563.14
2019-02-12T20:30:15.556Z,102561.23
2019-02-12T20:32:44.778Z,102563.14
2019-02-12T20:35:16.307Z,102561.69
2019-02-12T20:37:44.997Z,102557.91
2019-02-12T20:40:14.746Z,102562.06
2019-02-12T20:42:43.657Z,102568.33
2019-02-12T20:45:14.894Z,102562.45
2019-02-12T20:47:43.760Z,102570.17
2019-02-12T20:50:15.317Z,102569.14
2019-02-12T20:52:44.275Z,102565.02
2019-02-12T20:55:13.167Z,102566.62
2019-02-12T20:57:41.984Z,102572.50
2019-02-12T21:00:22.734Z,102566.58
2019-02-12T21:02:51.392Z,102564.94
2019-02-12T21:05:20.166Z,102563.98
2019-02-12T21:07:49.372Z,102564.67
2019-02-12T21:10:23.351Z,102571.59
2019-02-12T21:12:52.426Z,102565.25
2019-02-12T21:15:32.382Z,102563.57
2019-02-12T21:18:01.551Z,102564.74
2019-02-12T21:20:30.289Z,102563.39
2019-02-12T21:23:00.923Z,102563.30
2019-02-12T21:25:32.682Z,102558.27
2019-02-12T21:28:01.466Z,102562.55
2019-02-12T21:30:32.951Z,102564.88
2019-02-12T21:33:01.820Z,102555.02
2019-02-12T21:35:30.751Z,102563.61
2019-02-12T21:38:00.258Z,102556.66
2019-02-12T21:40:29.147Z,102558.55
2019-02-12T21:42:58.116Z,102561.69
2019-02-12T21:45:27.270Z,102558.94
2019-02-12T21:47:58.679Z,102554.27
2019-02-12T21:50:28.554Z,102551.09
2019-02-12T21:52:57.915Z,102551.34
2019-02-12T21:55:33.895Z,102557.09
2019-02-12T21:58:02.509Z,102564.95
2019-02-12T22:00:32.840Z,102565.41
2019-02-12T22:03:01.754Z,102563.28
2019-02-12T22:05:30.358Z,102573.09
2019-02-12T22:08:00.003Z,102561.75
2019-02-12T22:10:31.550Z,102563.21
2019-02-12T22:13:00.121Z,102559.55
2019-02-12T22:15:28.753Z,102561.23
2019-02-12T22:17:57.517Z,102566.31
2019-02-12T22:20:26.463Z,102575.39
2019-02-12T22:22:55.004Z,102568.89
2019-02-12T22:25:23.583Z,102576.75
2019-02-12T22:27:52.283Z,102576.16
2019-02-12T22:30:24.993Z,102576.37
2019-02-12T22:32:53.599Z,102579.02
2019-02-12T22:35:22.141Z,102578.86
2019-02-12T22:37:50.703Z,102576.34
2019-02-12T22:40:19.380Z,102573.67
2019-02-12T22:42:48.301Z,102571.49
2019-02-12T22:45:22.042Z,102574.35
2019-02-12T22:47:50.621Z,102579.39
2019-02-12T22:50:19.274Z,102581.28
2019-02-12T22:52:47.871Z,102573.70
2019-02-12T22:55:16.465Z,102578.23
2019-02-12T22:57:49.360Z,102579.11
2019-02-12T23:00:47.404Z,102574.30
2019-02-12T23:03:16.323Z,102575.69
2019-02-12T23:05:45.298Z,102578.92
2019-02-12T23:08:14.134Z,102576.24
2019-02-12T23:10:43.170Z,102578.70
2019-02-12T23:13:11.717Z,102573.53
2019-02-12T23:15:40.232Z,102571.71
2019-02-12T23:18:08.830Z,102573.42
2019-02-12T23:20:37.826Z,102570.58
2019-02-12T23:23:06.387Z,102575.41
2019-02-12T23:25:34.913Z,102561.29
2019-02-12T23:28:03.659Z,102559.53
2019-02-12T23:30:32.663Z,102563.83
2019-02-12T23:33:01.348Z,102559.87
2019-02-12T23:35:30.236Z,102570.52
2019-02-12T23:37:58.815Z,102566.46
2019-02-12T23:40:27.706Z,102571.38
2019-02-12T23:42:56.414Z,102555.69
2019-02-12T23:45:25.137Z,102561.35
2019-02-12T23:47:53.780Z,102562.60
2019-02-12T23:50:22.339Z,102564.14
2019-02-12T23:52:51.338Z,102567.80
2019-02-12T23:55:19.929Z,102570.70
2019-02-12T23:57:48.914Z,102567.47
